createdAt,value
2022-09-28T00:01:14.609Z,27.10
2022-09-28T00:03:41.012Z,24.92
2022-09-28T00:06:08.203Z,23.15
2022-09-28T00:08:35.239Z,20.23
2022-09-28T00:11:01.833Z,17.75
2022-09-28T00:13:28.373Z,17.80
2022-09-28T00:16:00.965Z,15.02
2022-09-28T00:18:27.601Z,14.48
2022-09-28T00:21:04.417Z,17.38
2022-09-28T00:23:30.901Z,13.40
2022-09-28T00:26:01.812Z,13.20
2022-09-28T00:28:28.266Z,15.27
2022-09-28T00:30:55.251Z,13.40
2022-09-28T00:33:22.403Z,15.10
2022-09-28T00:35:58.232Z,13.03
2022-09-28T00:38:28.751Z,10.65
2022-09-28T00:40:56.030Z,10.23
2022-09-28T00:43:23.314Z,10.32
2022-09-28T00:45:52.950Z,13.80
2022-09-28T00:48:19.628Z,8.00
2022-09-28T00:50:46.597Z,9.20
2022-09-28T00:53:17.519Z,9.93
2022-09-28T00:55:51.307Z,9.43
2022-09-28T00:58:23.940Z,9.98
2022-09-28T01:00:50.970Z,11.63
2022-09-28T01:03:17.955Z,12.17
2022-09-28T01:05:44.861Z,12.90
2022-09-28T01:08:11.757Z,13.07
2022-09-28T01:10:38.287Z,12.77
2022-09-28T01:13:04.764Z,12.33
2022-09-28T01:15:31.253Z,14.98
2022-09-28T01:18:02.857Z,9.07
2022-09-28T01:20:29.563Z,8.57
2022-09-28T01:23:19.715Z,7.45
2022-09-28T01:25:51.035Z,7.22
2022-09-28T01:28:18.246Z,7.93
2022-09-28T01:30:51.422Z,5.05
2022-09-28T01:33:20.879Z,4.38
2022-09-28T01:35:55.172Z,4.73
2022-09-28T01:38:22.429Z,5.10
2022-09-28T01:40:48.976Z,4.43
2022-09-28T01:43:17.101Z,4.80
2022-09-28T01:45:44.274Z,5.72
2022-09-28T01:48:10.738Z,4.43
2022-09-28T01:50:38.161Z,4.97
2022-09-28T01:53:07.153Z,4.82
2022-09-28T01:55:33.632Z,6.75
2022-09-28T01:58:05.494Z,5.20
2022-09-28T02:00:32.636Z,4.47
2022-09-28T02:03:05.166Z,4.88
2022-09-28T02:05:35.867Z,5.03
2022-09-28T02:08:07.398Z,4.10
2022-09-28T02:10:35.782Z,3.70
2022-09-28T02:13:14.395Z,4.03
2022-09-28T02:15:43.399Z,4.93
2022-09-28T02:18:09.851Z,3.78
2022-09-28T02:20:36.405Z,3.65
2022-09-28T02:23:02.902Z,4.53
2022-09-28T02:25:47.194Z,2.50
2022-09-28T02:28:13.925Z,3.80
2022-09-28T02:30:41.410Z,2.55
2022-09-28T02:33:18.342Z,3.67
2022-09-28T02:35:44.791Z,3.42
2022-09-28T02:38:12.020Z,4.90
2022-09-28T02:40:38.541Z,4.53
2022-09-28T02:43:15.523Z,4.43
2022-09-28T02:45:45.007Z,4.13
2022-09-28T02:48:55.775Z,3.90
2022-09-28T02:51:30.182Z,4.93
2022-09-28T02:53:59.729Z,6.57
2022-09-28T02:56:26.162Z,6.07
2022-09-28T02:59:01.808Z,6.33
2022-09-28T03:01:28.352Z,7.47
2022-09-28T03:03:57.666Z,6.87
2022-09-28T03:06:37.562Z,7.47
2022-09-28T03:09:05.672Z,7.30
2022-09-28T03:11:33.739Z,7.47
2022-09-28T03:14:00.345Z,5.57
2022-09-28T03:16:27.716Z,4.83
2022-09-28T03:18:54.282Z,3.90
2022-09-28T03:21:20.814Z,4.10
2022-09-28T03:23:48.011Z,3.40
2022-09-28T03:26:14.699Z,6.28
2022-09-28T03:28:41.287Z,3.80
2022-09-28T03:31:07.836Z,4.47
2022-09-28T03:33:34.396Z,7.23
2022-09-28T03:36:01.045Z,5.23
2022-09-28T03:38:27.513Z,10.47
2022-09-28T03:40:54.830Z,8.43
2022-09-28T03:43:22.693Z,6.93
2022-09-28T03:45:55.736Z,10.70
2022-09-28T03:48:30.014Z,9.00
2022-09-28T03:50:59.277Z,8.03
2022-09-28T03:53:25.877Z,8.83
2022-09-28T03:55:53.407Z,10.43
2022-09-28T03:58:21.085Z,8.97
2022-09-28T04:00:47.978Z,8.37
2022-09-28T04:03:14.656Z,8.23
2022-09-28T04:05:50.578Z,7.80
2022-09-28T04:08:17.284Z,8.63
2022-09-28T04:10:43.871Z,6.73
2022-09-28T04:13:10.419Z,7.33
2022-09-28T04:15:38.605Z,5.47
2022-09-28T04:18:05.651Z,5.93
2022-09-28T04:20:33.373Z,5.70
2022-09-28T04:22:59.935Z,8.80
2022-09-28T04:25:26.409Z,8.53
2022-09-28T04:28:11.618Z,5.50
2022-09-28T04:30:38.201Z,7.23
2022-09-28T04:33:04.630Z,8.83
2022-09-28T04:35:31.119Z,9.00
2022-09-28T04:37:57.809Z,7.10
2022-09-28T04:40:24.375Z,6.20
2022-09-28T04:42:56.881Z,7.03
2022-09-28T04:45:23.681Z,4.47
2022-09-28T04:47:50.160Z,5.30
2022-09-28T04:50:16.691Z,4.30
2022-09-28T04:52:43.170Z,5.10
2022-09-28T04:55:11.826Z,7.13
2022-09-28T04:57:38.283Z,6.13
2022-09-28T05:00:05.621Z,5.80
2022-09-28T05:02:32.526Z,7.23
2022-09-28T05:04:59.135Z,4.67
2022-09-28T05:07:26.412Z,6.67
2022-09-28T05:09:53.262Z,5.00
2022-09-28T05:12:21.035Z,6.10
2022-09-28T05:14:47.498Z,7.90
2022-09-28T05:17:14.439Z,9.77
2022-09-28T05:19:41.153Z,9.37
2022-09-28T05:22:11.537Z,8.23
2022-09-28T05:24:38.888Z,8.13
2022-09-28T05:27:05.480Z,8.13
2022-09-28T05:29:32.824Z,7.30
2022-09-28T05:32:01.681Z,8.57
2022-09-28T05:34:28.370Z,8.93
2022-09-28T05:36:55.090Z,7.90
2022-09-28T05:39:21.591Z,6.33
2022-09-28T05:41:48.047Z,9.27
2022-09-28T05:44:14.582Z,8.27
2022-09-28T05:46:41.129Z,7.57
2022-09-28T05:49:07.616Z,12.03
2022-09-28T05:51:34.145Z,8.40
2022-09-28T05:54:05.358Z,9.73
2022-09-28T05:56:32.095Z,8.77
2022-09-28T05:58:58.810Z,12.23
2022-09-28T06:01:25.409Z,9.63
2022-09-28T06:03:51.994Z,8.03
2022-09-28T06:06:18.443Z,12.33
2022-09-28T06:08:46.432Z,8.83
2022-09-28T06:11:12.958Z,6.13
2022-09-28T06:13:40.170Z,7.47
2022-09-28T06:16:08.153Z,6.27
2022-09-28T06:18:34.623Z,6.83
2022-09-28T06:21:01.425Z,5.80
2022-09-28T06:23:27.890Z,4.87
2022-09-28T06:25:55.379Z,5.60
2022-09-28T06:28:22.328Z,5.10
2022-09-28T06:30:48.820Z,6.23
2022-09-28T06:33:15.400Z,5.90
2022-09-28T06:35:42.448Z,7.53
2022-09-28T06:38:09.009Z,3.87
2022-09-28T06:40:35.901Z,4.57
2022-09-28T06:43:10.155Z,4.17
2022-09-28T06:45:36.922Z,4.73
2022-09-28T06:48:03.526Z,4.43
2022-09-28T06:50:33.837Z,4.43
2022-09-28T06:53:00.607Z,4.03
2022-09-28T06:55:27.164Z,5.17
2022-09-28T06:58:00.266Z,6.53
2022-09-28T07:00:31.277Z,7.40
2022-09-28T07:02:57.733Z,5.93
2022-09-28T07:05:27.607Z,4.93
2022-09-28T07:07:57.144Z,3.13
2022-09-28T07:10:24.015Z,3.47
2022-09-28T07:12:53.674Z,3.30
2022-09-28T07:15:20.379Z,3.03
2022-09-28T07:17:57.626Z,2.20
2022-09-28T07:20:27.371Z,3.27
2022-09-28T07:22:54.508Z,3.33
2022-09-28T07:25:21.266Z,3.87
2022-09-28T07:27:47.710Z,2.13
2022-09-28T07:30:14.264Z,3.57
2022-09-28T07:32:40.705Z,3.90
2022-09-28T07:35:09.752Z,2.10
2022-09-28T07:37:36.459Z,2.10
2022-09-28T07:40:22.404Z,2.50
2022-09-28T07:42:48.970Z,2.33
2022-09-28T07:45:15.422Z,2.73
2022-09-28T07:47:41.867Z,3.00
2022-09-28T07:50:08.553Z,2.77
2022-09-28T07:52:35.434Z,5.60
2022-09-28T07:55:06.614Z,3.03
2022-09-28T07:57:33.714Z,1.27
2022-09-28T08:00:05.318Z,2.30
2022-09-28T08:02:34.125Z,1.67
2022-09-28T08:05:01.032Z,1.53
2022-09-28T08:07:27.712Z,1.83
2022-09-28T08:09:54.221Z,1.83
2022-09-28T08:12:21.315Z,3.53
2022-09-28T08:14:47.910Z,3.13
2022-09-28T08:17:15.722Z,1.03
2022-09-28T08:20:00.934Z,0.70
2022-09-28T08:22:29.866Z,1.50
2022-09-28T08:24:56.299Z,2.30
2022-09-28T08:27:22.750Z,0.90
2022-09-28T08:29:49.234Z,2.60
2022-09-28T08:32:16.779Z,2.70
2022-09-28T08:34:43.325Z,3.53
2022-09-28T08:37:10.682Z,1.50
2022-09-28T08:39:37.419Z,1.02
2022-09-28T08:42:22.711Z,1.92
2022-09-28T08:44:50.669Z,1.13
2022-09-28T08:47:40.281Z,0.90
2022-09-28T08:50:07.054Z,2.05
2022-09-28T08:52:39.670Z,1.02
2022-09-28T08:55:12.346Z,0.77
2022-09-28T08:57:52.726Z,1.65
2022-09-28T09:00:30.917Z,1.67
2022-09-28T09:02:57.407Z,2.88
2022-09-28T09:05:24.457Z,2.10
2022-09-28T09:08:06.560Z,0.70
2022-09-28T09:10:47.613Z,1.05
2022-09-28T09:13:33.161Z,0.85
2022-09-28T09:16:21.207Z,2.20
2022-09-28T09:19:10.160Z,3.17
2022-09-28T09:21:46.951Z,2.20
2022-09-28T09:24:27.488Z,1.63
2022-09-28T09:27:07.187Z,1.67
2022-09-28T09:29:37.416Z,1.23
2022-09-28T09:32:09.644Z,1.98
2022-09-28T09:34:49.598Z,2.70
2022-09-28T09:37:17.156Z,0.70
2022-09-28T09:39:46.871Z,1.70
2022-09-28T09:42:19.531Z,0.40
2022-09-28T09:45:05.201Z,0.40
2022-09-28T09:47:43.042Z,0.88
2022-09-28T09:50:15.152Z,0.40
2022-09-28T09:52:46.693Z,0.50
2022-09-28T09:55:17.172Z,0.60
2022-09-28T09:58:06.863Z,1.13
2022-09-28T10:00:33.389Z,1.00
2022-09-28T10:03:00.661Z,1.13
2022-09-28T10:05:27.900Z,0.40
2022-09-28T10:08:01.970Z,1.48
2022-09-28T10:10:30.235Z,0.65
2022-09-28T10:12:56.771Z,0.70
2022-09-28T10:15:27.257Z,1.08
2022-09-28T10:17:57.646Z,0.60
2022-09-28T10:20:25.663Z,0.47
2022-09-28T10:22:52.289Z,2.30
2022-09-28T10:25:18.968Z,0.45
2022-09-28T10:27:46.339Z,0.93
2022-09-28T10:30:12.897Z,0.40
2022-09-28T10:32:40.114Z,1.85
2022-09-28T10:35:18.757Z,0.70
2022-09-28T10:37:59.414Z,0.60
2022-09-28T10:40:32.014Z,0.88
2022-09-28T10:43:02.599Z,0.30
2022-09-28T10:45:31.674Z,0.40
2022-09-28T10:47:58.753Z,0.30
2022-09-28T10:50:25.835Z,0.55
2022-09-28T10:52:52.306Z,0.50
2022-09-28T10:55:21.843Z,0.60
2022-09-28T10:57:48.472Z,1.70
2022-09-28T11:00:29.453Z,1.23
2022-09-28T11:02:55.939Z,2.25
2022-09-28T11:05:23.999Z,1.30
2022-09-28T11:07:52.424Z,2.10
2022-09-28T11:10:22.748Z,1.95
2022-09-28T11:12:49.504Z,1.20
2022-09-28T11:15:20.039Z,1.70
2022-09-28T11:17:46.631Z,1.40
2022-09-28T11:20:27.768Z,0.30
2022-09-28T11:22:58.014Z,1.73
2022-09-28T11:25:25.762Z,1.48
2022-09-28T11:27:52.275Z,0.80
2022-09-28T11:30:24.963Z,1.58
2022-09-28T11:32:51.735Z,1.98
2022-09-28T11:35:19.820Z,2.78
2022-09-28T11:37:55.546Z,0.40
2022-09-28T11:40:25.105Z,0.80
2022-09-28T11:42:53.706Z,2.08
2022-09-28T11:45:23.257Z,0.63
2022-09-28T11:47:51.642Z,1.05
2022-09-28T11:50:24.119Z,0.40
2022-09-28T11:53:12.002Z,0.47
2022-09-28T11:55:50.499Z,1.02
2022-09-28T11:58:26.088Z,0.32
2022-09-28T12:00:54.686Z,1.80
2022-09-28T12:03:29.872Z,1.73
2022-09-28T12:05:57.484Z,0.45
2022-09-28T12:08:28.670Z,0.73
2022-09-28T12:11:00.326Z,0.80
2022-09-28T12:13:27.736Z,1.65
2022-09-28T12:16:32.744Z,2.25
2022-09-28T12:19:06.925Z,3.55
2022-09-28T12:21:33.410Z,2.40
2022-09-28T12:24:15.064Z,1.45
2022-09-28T12:26:44.535Z,0.60
2022-09-28T12:29:15.211Z,2.20
2022-09-28T12:31:50.675Z,0.90
2022-09-28T12:34:17.101Z,1.20
2022-09-28T12:36:53.196Z,1.58
2022-09-28T12:39:53.624Z,0.82
2022-09-28T12:42:32.057Z,0.85
2022-09-28T12:45:18.890Z,2.28
2022-09-28T12:48:08.306Z,1.13
2022-09-28T12:50:38.447Z,0.40
2022-09-28T12:53:25.975Z,1.17
2022-09-28T12:55:54.268Z,0.35
2022-09-28T12:58:26.874Z,0.73
2022-09-28T13:00:56.452Z,0.35
2022-09-28T13:03:41.270Z,0.65
2022-09-28T13:06:26.539Z,1.17
2022-09-28T13:08:55.999Z,0.65
2022-09-28T13:11:33.233Z,1.38
2022-09-28T13:14:01.920Z,6.03
2022-09-28T13:16:31.690Z,2.38
2022-09-28T13:19:13.471Z,2.00
2022-09-28T13:21:42.993Z,1.48
2022-09-28T13:24:30.945Z,2.20
2022-09-28T13:26:57.363Z,2.47
2022-09-28T13:29:23.889Z,1.10
2022-09-28T13:31:59.568Z,1.10
2022-09-28T13:34:29.569Z,1.92
2022-09-28T13:37:17.053Z,2.03
2022-09-28T13:39:46.527Z,0.73
2022-09-28T13:42:21.868Z,2.28
2022-09-28T13:45:00.692Z,1.20
2022-09-28T13:47:33.578Z,0.70
2022-09-28T13:50:02.861Z,1.48
2022-09-28T13:52:39.863Z,1.00
2022-09-28T13:55:12.747Z,0.60
2022-09-28T13:57:59.482Z,1.00
2022-09-28T14:00:27.601Z,1.35
2022-09-28T14:03:06.341Z,1.60
2022-09-28T14:05:53.209Z,1.50
2022-09-28T14:08:31.989Z,2.75
2022-09-28T14:11:19.428Z,2.63
2022-09-28T14:13:58.027Z,2.38
2022-09-28T14:16:26.870Z,1.42
2022-09-28T14:18:59.476Z,1.35
2022-09-28T14:21:44.795Z,2.83
2022-09-28T14:24:27.515Z,2.40
2022-09-28T14:27:12.971Z,3.88
2022-09-28T14:29:39.568Z,1.88
2022-09-28T14:32:09.050Z,1.67
2022-09-28T14:34:41.107Z,3.08
2022-09-28T14:37:39.377Z,2.70
2022-09-28T14:40:50.015Z,2.88
2022-09-28T14:43:35.025Z,1.20
2022-09-28T14:46:31.118Z,1.70
2022-09-28T14:49:18.510Z,1.05
2022-09-28T14:51:47.974Z,1.00
2022-09-28T14:54:20.896Z,1.30
2022-09-28T14:56:56.804Z,1.58
2022-09-28T14:59:27.250Z,1.80
2022-09-28T15:02:16.026Z,1.10
2022-09-28T15:04:50.526Z,1.17
2022-09-28T15:07:21.736Z,1.85
2022-09-28T15:09:49.804Z,1.05
2022-09-28T15:12:27.389Z,1.45
2022-09-28T15:15:08.667Z,1.77
2022-09-28T15:17:39.833Z,1.88
2022-09-28T15:20:24.206Z,1.67
2022-09-28T15:22:54.135Z,1.08
2022-09-28T15:25:21.582Z,1.48
2022-09-28T15:27:52.749Z,0.80
2022-09-28T15:30:23.103Z,0.98
2022-09-28T15:32:49.898Z,2.45
2022-09-28T15:35:20.739Z,1.40
2022-09-28T15:37:52.115Z,1.83
2022-09-28T15:40:32.030Z,6.18
2022-09-28T15:42:59.490Z,2.00
2022-09-28T15:45:34.842Z,2.28
2022-09-28T15:48:17.762Z,2.47
2022-09-28T15:50:57.184Z,3.67
2022-09-28T15:53:23.625Z,3.53
2022-09-28T15:55:50.194Z,3.47
2022-09-28T15:58:20.502Z,3.15
2022-09-28T16:00:47.707Z,3.92
2022-09-28T16:03:17.343Z,2.95
2022-09-28T16:05:46.702Z,4.07
2022-09-28T16:08:21.445Z,4.88
2022-09-28T16:10:53.390Z,12.23
2022-09-28T16:13:20.555Z,6.78
2022-09-28T16:15:47.099Z,4.32
2022-09-28T16:18:13.663Z,5.18
2022-09-28T16:20:40.268Z,3.65
2022-09-28T16:23:17.078Z,5.00
2022-09-28T16:25:57.342Z,5.65
2022-09-28T16:28:25.377Z,9.02
2022-09-28T16:31:00.880Z,13.23
2022-09-28T16:33:28.362Z,8.65
2022-09-28T16:35:54.767Z,9.15
2022-09-28T16:38:21.597Z,8.75
2022-09-28T16:40:53.783Z,6.50
2022-09-28T16:43:26.962Z,10.55
2022-09-28T16:45:56.720Z,12.13
2022-09-28T16:48:24.677Z,9.07
2022-09-28T16:50:51.185Z,9.15
2022-09-28T16:53:36.384Z,6.70
2022-09-28T16:56:03.028Z,8.20
2022-09-28T16:58:31.303Z,7.10
2022-09-28T17:00:58.256Z,4.90
2022-09-28T17:03:24.781Z,6.82
2022-09-28T17:05:51.335Z,5.90
2022-09-28T17:08:18.591Z,5.07
2022-09-28T17:11:09.869Z,6.30
2022-09-28T17:13:34.036Z,9.32
2022-09-28T17:16:01.754Z,7.97
2022-09-28T17:18:31.843Z,7.45
2022-09-28T17:20:59.224Z,6.47
2022-09-28T17:23:26.025Z,8.88
2022-09-28T17:25:54.605Z,7.82
2022-09-28T17:28:24.751Z,14.07
2022-09-28T17:30:51.259Z,11.07
2022-09-28T17:33:17.822Z,12.88
2022-09-28T17:35:44.500Z,13.35
2022-09-28T17:38:14.613Z,15.70
2022-09-28T17:40:41.837Z,14.73
2022-09-28T17:43:08.340Z,14.30
2022-09-28T17:45:38.991Z,15.15
2022-09-28T17:48:06.324Z,19.35
2022-09-28T17:50:34.164Z,22.50
2022-09-28T17:53:03.929Z,18.40
2022-09-28T17:55:31.881Z,23.40
2022-09-28T17:57:58.693Z,23.50
2022-09-28T18:00:27.502Z,23.48
2022-09-28T18:02:57.927Z,25.50
2022-09-28T18:05:25.026Z,25.27
2022-09-28T18:07:51.831Z,22.23
2022-09-28T18:10:22.246Z,22.48
2022-09-28T18:12:49.214Z,23.55
2022-09-28T18:15:15.914Z,21.00
2022-09-28T18:17:44.079Z,16.00
2022-09-28T18:20:11.105Z,15.48
2022-09-28T18:22:37.669Z,18.73
2022-09-28T18:25:04.504Z,15.07
2022-09-28T18:27:31.171Z,17.52
2022-09-28T18:29:57.693Z,15.07
2022-09-28T18:32:24.192Z,19.23
2022-09-28T18:34:50.750Z,21.55
2022-09-28T18:37:17.252Z,21.67
2022-09-28T18:39:43.813Z,19.35
2022-09-28T18:42:10.661Z,17.38
2022-09-28T18:44:37.183Z,18.10
2022-09-28T18:47:03.670Z,24.83
2022-09-28T18:49:30.496Z,21.60
2022-09-28T18:51:57.053Z,23.30
2022-09-28T18:54:24.514Z,19.77
2022-09-28T18:56:53.805Z,20.52
2022-09-28T18:59:20.294Z,20.85
2022-09-28T19:01:46.891Z,22.60
2022-09-28T19:04:13.634Z,25.17
2022-09-28T19:06:41.353Z,22.42
2022-09-28T19:09:08.072Z,25.85
2022-09-28T19:11:34.713Z,27.77
2022-09-28T19:14:01.162Z,23.17
2022-09-28T19:16:28.765Z,24.75
2022-09-28T19:18:58.458Z,26.70
2022-09-28T19:21:25.037Z,24.35
2022-09-28T19:23:53.725Z,25.17
2022-09-28T19:26:21.326Z,23.27
2022-09-28T19:28:48.050Z,23.75
2022-09-28T19:31:14.578Z,22.75
2022-09-28T19:33:41.839Z,23.42
2022-09-28T19:36:09.069Z,21.02
2022-09-28T19:38:35.922Z,24.55
2022-09-28T19:41:02.926Z,29.63
2022-09-28T19:43:29.374Z,31.85
2022-09-28T19:45:56.021Z,31.88
2022-09-28T19:48:26.359Z,32.05
2022-09-28T19:50:59.625Z,28.88
2022-09-28T19:53:26.640Z,29.92
2022-09-28T19:55:53.966Z,31.70
2022-09-28T19:58:24.654Z,31.77
2022-09-28T20:00:51.511Z,30.33
2022-09-28T20:03:18.702Z,27.92
2022-09-28T20:05:45.602Z,36.00
2022-09-28T20:08:12.223Z,43.90
2022-09-28T20:10:38.958Z,37.88
2022-09-28T20:13:05.461Z,47.22
2022-09-28T20:15:32.009Z,49.75
2022-09-28T20:17:59.035Z,40.65
2022-09-28T20:20:28.553Z,36.53
2022-09-28T20:22:55.316Z,37.22
2022-09-28T20:25:21.828Z,38.80
2022-09-28T20:27:48.320Z,39.00
2022-09-28T20:30:14.807Z,34.03
2022-09-28T20:32:41.722Z,31.42
2022-09-28T20:35:08.447Z,28.50
2022-09-28T20:37:34.929Z,28.17
2022-09-28T20:40:01.835Z,26.83
2022-09-28T20:42:28.975Z,28.63
2022-09-28T20:44:55.509Z,22.17
2022-09-28T20:47:21.991Z,24.90
2022-09-28T20:49:48.498Z,24.58
2022-09-28T20:52:15.020Z,26.40
2022-09-28T20:54:41.585Z,24.85
2022-09-28T20:57:17.604Z,33.10
2022-09-28T20:59:44.688Z,32.70
2022-09-28T21:02:11.635Z,37.03
2022-09-28T21:04:38.094Z,32.92
2022-09-28T21:07:04.672Z,31.02
2022-09-28T21:09:32.234Z,32.53
2022-09-28T21:12:00.087Z,34.28
2022-09-28T21:14:26.838Z,30.85
2022-09-28T21:16:53.382Z,31.33
2022-09-28T21:19:20.832Z,32.78
2022-09-28T21:21:50.250Z,33.85
2022-09-28T21:24:16.839Z,32.58
2022-09-28T21:26:43.409Z,30.98
2022-09-28T21:29:13.537Z,38.05
2022-09-28T21:31:45.789Z,33.30
2022-09-28T21:34:19.766Z,34.13
2022-09-28T21:36:51.363Z,35.63
2022-09-28T21:39:18.327Z,38.42
2022-09-28T21:41:44.899Z,40.47
2022-09-28T21:44:11.412Z,34.88
2022-09-28T21:46:38.169Z,31.33
2022-09-28T21:49:05.118Z,31.00
2022-09-28T21:51:31.569Z,32.38
2022-09-28T21:53:58.069Z,29.15
2022-09-28T21:56:24.751Z,28.60
2022-09-28T21:58:51.250Z,25.85
2022-09-28T22:01:19.552Z,29.05
2022-09-28T22:03:48.002Z,31.83
2022-09-28T22:06:15.224Z,27.20
2022-09-28T22:08:41.850Z,26.70
2022-09-28T22:11:09.057Z,25.73
2022-09-28T22:13:36.301Z,27.67
2022-09-28T22:16:03.138Z,27.13
2022-09-28T22:18:30.069Z,23.77
2022-09-28T22:21:03.982Z,26.50
2022-09-28T22:23:30.579Z,23.13
2022-09-28T22:25:58.108Z,27.25
2022-09-28T22:28:24.606Z,23.05
2022-09-28T22:30:51.091Z,25.95
2022-09-28T22:33:17.568Z,22.75
2022-09-28T22:35:44.065Z,20.70
2022-09-28T22:38:10.524Z,25.27
2022-09-28T22:40:38.463Z,22.85
2022-09-28T22:43:05.023Z,18.02
2022-09-28T22:45:31.524Z,15.88
2022-09-28T22:47:57.962Z,13.10
2022-09-28T22:50:24.424Z,11.45
2022-09-28T22:52:51.184Z,13.00
2022-09-28T22:55:17.622Z,10.15
2022-09-28T22:57:44.220Z,11.00
2022-09-28T23:00:11.002Z,11.57
2022-09-28T23:02:37.541Z,13.43
2022-09-28T23:05:04.337Z,13.25
2022-09-28T23:07:30.860Z,14.38
2022-09-28T23:09:58.830Z,17.33
2022-09-28T23:12:25.267Z,29.77
2022-09-28T23:14:51.712Z,31.65
2022-09-28T23:17:18.640Z,20.30
2022-09-28T23:19:45.100Z,17.88
2022-09-28T23:22:11.643Z,22.13
2022-09-28T23:24:38.104Z,28.95
2022-09-28T23:27:07.235Z,19.42
2022-09-28T23:29:33.723Z,16.08
2022-09-28T23:32:00.204Z,10.48
2022-09-28T23:34:26.637Z,8.80
2022-09-28T23:36:53.237Z,9.52
2022-09-28T23:39:19.836Z,7.15
2022-09-28T23:41:46.355Z,8.30
2022-09-28T23:44:12.802Z,10.20
2022-09-28T23:46:39.527Z,19.83
2022-09-28T23:49:05.984Z,16.08
2022-09-28T23:51:32.465Z,13.40
2022-09-28T23:53:59.163Z,9.38
2022-09-28T23:56:25.585Z,9.15
2022-09-28T23:58:52.018Z,6.63
